WetterOnline ( https://www.wetteronline.at )

Wetter aktuell Freiburg

Aktuelles Wetter: Freiburg/Flugplatz (236m)

6-stündlich | Neueste Meldungen
Ortszeit Temperatur Wetter
Fr, 19.04. 14:00 21.9° C wolkenlos
Fr, 19.04. 8:00 10.1° C wolkenlos
Fr, 19.04. 2:00 16.7° C wolkenlos
Do, 18.04. 20:00 20.6° C wolkenlos
Do, 18.04. 14:00 18.1° C wolkenlos
Do, 18.04. 8:00 7.2° C fast wolkenlos
Do, 18.04. 2:00 10.4° C wolkig
Mi, 17.04. 20:00 15.9° C leicht bewölkt
Ortszeit Temperatur Wetter
Fr, 19.04. 18:00 23.0° C wolkig
Fr, 19.04. 17:50 23.0° C wolkig
Fr, 19.04. 17:40 22.9° C leicht bewölkt
Fr, 19.04. 17:30 22.7° C leicht bewölkt
Fr, 19.04. 17:20 22.7° C leicht bewölkt
Fr, 19.04. 17:10 22.7° C fast wolkenlos
Fr, 19.04. 17:00 22.9° C leicht bewölkt
Fr, 19.04. 16:30 22.8° C wolkenlos
Fr, 19.04. 16:00 22.6° C wolkenlos
Fr, 19.04. 15:30 22.0° C wolkenlos
Fr, 19.04. 15:00 21.7° C wolkenlos
Ortszeit Relative Feuchte Sichtweite
Fr, 19.04. 14:00 41% 30 km
Fr, 19.04. 8:00 73% 27 km
Fr, 19.04. 2:00 40% 65 km
Do, 18.04. 20:00 43% 40 km
Do, 18.04. 14:00 45% 27 km
Do, 18.04. 8:00 80% 25 km
Do, 18.04. 2:00 62% 30 km
Mi, 17.04. 20:00 68% 70 km
Ortszeit Relative Feuchte Sichtweite
Fr, 19.04. 18:00 38% 35 km
Fr, 19.04. 17:50 38% -
Fr, 19.04. 17:40 37% -
Fr, 19.04. 17:30 38% 35 km
Fr, 19.04. 17:20 38% -
Fr, 19.04. 17:10 38% -
Fr, 19.04. 17:00 38% 30 km
Fr, 19.04. 16:30 38% 35 km
Fr, 19.04. 16:00 34% 35 km
Fr, 19.04. 15:30 36% 30 km
Fr, 19.04. 15:00 37% 35 km
Ortszeit Niederschlagsmenge Niederschlagsart
Fr, 19.04. 14:00 0.0 l/m2 in 6 Std. -
Fr, 19.04. 8:00 0.0 l/m2 in 12 Std. -
Fr, 19.04. 2:00 0.0 l/m2 in 6 Std. -
Do, 18.04. 20:00 0.0 l/m2 in 12 Std. -
Do, 18.04. 14:00 0.0 l/m2 in 6 Std. -
Do, 18.04. 8:00 0.0 l/m2 in 12 Std. -
Do, 18.04. 2:00 0.0 l/m2 in 6 Std. -
Mi, 17.04. 20:00 0.1 l/m2 in 12 Std. Regen
Ortszeit Niederschlagsmenge Niederschlagsart
Fr, 19.04. 18:00 0.0 l/m2 in 1 Std. -
Fr, 19.04. 17:50 keine Meldung -
Fr, 19.04. 17:40 keine Meldung -
Fr, 19.04. 17:30 0.0 l/m2 in 1 Std. -
Fr, 19.04. 17:20 keine Meldung -
Fr, 19.04. 17:10 keine Meldung -
Fr, 19.04. 17:00 0.0 l/m2 in 1 Std. -
Fr, 19.04. 16:30 0.0 l/m2 in 1 Std. -
Fr, 19.04. 16:00 0.0 l/m2 in 1 Std. -
Fr, 19.04. 15:30 0.0 l/m2 in 1 Std. -
Fr, 19.04. 15:00 0.0 l/m2 in 1 Std. -
Ortszeit Stärke Spitze Richtung
km/h Bft. km/h Grad Sektor
Fr, 19.04. 14:00 7 2 18 310° NW
Fr, 19.04. 8:00 2 1 19 270° W
Fr, 19.04. 2:00 7 2 36 80° O
Do, 18.04. 20:00 4 1 22 250° W
Do, 18.04. 14:00 11 2 22 330° NW
Do, 18.04. 8:00 4 1 14 360° N
Do, 18.04. 2:00 4 1 14 300° NW
Mi, 17.04. 20:00 9 2 20 30° NO
Ortszeit Stärke Spitze Richtung
km/h Bft. km/h Grad Sektor
Fr, 19.04. 18:00 15 3 26 330° NW
Fr, 19.04. 17:50 15 3 - 330° NW
Fr, 19.04. 17:40 14 3 - 340° N
Fr, 19.04. 17:30 13 3 26 310° NW
Fr, 19.04. 17:20 13 3 - 310° NW
Fr, 19.04. 17:10 15 3 - 320° NW
Fr, 19.04. 17:00 14 3 25 320° NW
Fr, 19.04. 16:30 13 3 24 320° NW
Fr, 19.04. 16:00 7 2 18 330° NW
Fr, 19.04. 15:30 9 2 19 310° NW
Fr, 19.04. 15:00 11 2 18 330° NW
Ortszeit Untergrenze Bedeckung Gattung
total tief tief mittel hoch
Fr, 19.04. 14:00 - 0/8 0/8 - - -
Fr, 19.04. 8:00 - 0/8 0/8 - - -
Fr, 19.04. 2:00 - 0/8 0/8 - - -
Do, 18.04. 20:00 - 0/8 0/8 - - -
Do, 18.04. 14:00 - 0/8 0/8 - - -
Do, 18.04. 8:00 9000 m 2/8 0/8 - - -
Do, 18.04. 2:00 9000 m 8/8 0/8 - - -
Mi, 17.04. 20:00 1500 m 2/8 1/8 - - -
Ortszeit Bedeckungsgrad in Achtel und Wolkenuntergrenze
Fr, 19.04. 18:00 5(3000m)
Fr, 19.04. 17:50 5(3000m)
Fr, 19.04. 17:40 1(2700m) 2(3300m)
Fr, 19.04. 17:30 1(2400m)
Fr, 19.04. 17:20 1(2400m) 2(3300m)
Fr, 19.04. 17:10 1(3300m)
Fr, 19.04. 17:00 2(3300m)
Fr, 19.04. 16:30 1(3300m)
Fr, 19.04. 16:00 keine Wolken
Fr, 19.04. 15:30 keine Wolken
Fr, 19.04. 15:00 keine Wolken
Ortszeit Luftdruck NN (hPa) Tendenz (hPa in 3 Std.)
Fr, 19.04. 14:00 1025 - 0,8
Fr, 19.04. 8:00 1026 + 1,9
Fr, 19.04. 2:00 1022 + 0,6
Do, 18.04. 20:00 1020 + 0,2
Do, 18.04. 14:00 1021 - 1,3
Do, 18.04. 8:00 1022 + 0,9
Do, 18.04. 2:00 1020 - 0,1
Mi, 17.04. 20:00 1019 - 0,6
Ortszeit Luftdruck NN (hPa) Tendenz (hPa in 3 Std.)
Fr, 19.04. 18:00 1024 - 0,8
Fr, 19.04. 17:50 1024 keine Meldung
Fr, 19.04. 17:40 1024 keine Meldung
Fr, 19.04. 17:30 1024 - 1,0
Fr, 19.04. 17:20 1024 keine Meldung
Fr, 19.04. 17:10 1024 keine Meldung
Fr, 19.04. 17:00 1024 - 0,9
Fr, 19.04. 16:30 1024 - 1,0
Fr, 19.04. 16:00 1024 - 1,0
Fr, 19.04. 15:30 1025 - 0,8
Fr, 19.04. 15:00 1025 - 0,8
Ortszeit Schneehöhe (cm)
Fr, 19.04. 14:00 0
Fr, 19.04. 8:00 0
Fr, 19.04. 2:00 0
Do, 18.04. 20:00 0
Do, 18.04. 14:00 0
Do, 18.04. 8:00 0
Do, 18.04. 2:00 0
Mi, 17.04. 20:00 0
Ortszeit Schneehöhe (cm)
Fr, 19.04. 18:00 0
Fr, 19.04. 17:50 0
Fr, 19.04. 17:40 0
Fr, 19.04. 17:30 0
Fr, 19.04. 17:20 0
Fr, 19.04. 17:10 0
Fr, 19.04. 17:00 0
Fr, 19.04. 16:30 0
Fr, 19.04. 16:00 0
Fr, 19.04. 15:30 0
Fr, 19.04. 15:00 0
Link zu dieser Seite / Seite empfehlen

Das Wetter in ...